createdAt,value
2022-07-25T00:01:49.547Z,9.47
2022-07-25T00:04:17.509Z,9.80
2022-07-25T00:06:45.938Z,9.53
2022-07-25T00:09:12.957Z,10.13
2022-07-25T00:11:40.001Z,9.80
2022-07-25T00:14:07.614Z,10.10
2022-07-25T00:16:35.194Z,9.93
2022-07-25T00:19:02.243Z,9.90
2022-07-25T00:21:29.542Z,9.47
2022-07-25T00:23:56.444Z,10.27
2022-07-25T00:26:23.397Z,10.27
2022-07-25T00:28:50.298Z,10.37
2022-07-25T00:31:17.224Z,9.73
2022-07-25T00:33:44.120Z,9.70
2022-07-25T00:36:11.018Z,9.87
2022-07-25T00:38:37.874Z,9.50
2022-07-25T00:41:05.422Z,9.67
2022-07-25T00:43:32.713Z,10.00
2022-07-25T00:45:59.992Z,9.87
2022-07-25T00:48:29.188Z,10.43
2022-07-25T00:50:57.214Z,10.23
2022-07-25T00:53:25.275Z,9.67
2022-07-25T00:55:52.609Z,10.07
2022-07-25T00:58:19.612Z,9.80
2022-07-25T01:00:47.560Z,10.63
2022-07-25T01:03:15.183Z,10.50
2022-07-25T01:05:42.473Z,9.60
2022-07-25T01:08:09.916Z,9.40
2022-07-25T01:10:37.639Z,9.70
2022-07-25T01:13:05.318Z,9.40
2022-07-25T01:15:32.273Z,10.07
2022-07-25T01:17:59.138Z,9.37
2022-07-25T01:20:28.631Z,10.20
2022-07-25T01:22:56.142Z,10.77
2022-07-25T01:25:24.217Z,10.20
2022-07-25T01:27:55.798Z,10.20
2022-07-25T01:30:24.960Z,10.30
2022-07-25T01:32:52.579Z,10.73
2022-07-25T01:35:19.855Z,10.37
2022-07-25T01:37:46.903Z,10.90
2022-07-25T01:40:14.781Z,9.60
2022-07-25T01:42:43.066Z,10.07
2022-07-25T01:45:11.443Z,10.10
2022-07-25T01:47:38.356Z,10.63
2022-07-25T01:50:06.317Z,10.80
2022-07-25T01:52:33.282Z,10.53
2022-07-25T01:55:00.230Z,10.23
2022-07-25T01:57:30.955Z,9.90
2022-07-25T01:59:59.197Z,11.00
2022-07-25T02:02:26.796Z,10.07
2022-07-25T02:04:53.972Z,10.30
2022-07-25T02:07:20.905Z,10.07
2022-07-25T02:09:47.748Z,10.33
2022-07-25T02:12:14.597Z,10.50
2022-07-25T02:14:41.510Z,10.43
2022-07-25T02:17:08.725Z,10.47
2022-07-25T02:19:36.315Z,10.33
2022-07-25T02:22:03.473Z,10.53
2022-07-25T02:24:30.368Z,10.57
2022-07-25T02:26:57.219Z,11.30
2022-07-25T02:29:24.153Z,10.93
2022-07-25T02:31:53.022Z,10.43
2022-07-25T02:34:19.908Z,10.73
2022-07-25T02:36:46.954Z,10.40
2022-07-25T02:39:14.399Z,9.80
2022-07-25T02:41:41.276Z,10.60
2022-07-25T02:44:08.321Z,10.10
2022-07-25T02:46:35.783Z,10.50
2022-07-25T02:49:03.256Z,10.70
2022-07-25T02:51:30.258Z,10.77
2022-07-25T02:53:58.662Z,9.97
2022-07-25T02:56:29.740Z,10.00
2022-07-25T02:58:57.454Z,10.53
2022-07-25T03:01:24.728Z,10.43
2022-07-25T03:03:51.828Z,9.90
2022-07-25T03:06:18.746Z,10.80
2022-07-25T03:08:45.925Z,10.00
2022-07-25T03:11:13.557Z,10.30
2022-07-25T03:13:40.641Z,9.53
2022-07-25T03:16:08.194Z,10.17
2022-07-25T03:18:35.067Z,10.03
2022-07-25T03:21:02.043Z,9.80
2022-07-25T03:23:29.919Z,10.53
2022-07-25T03:25:57.473Z,10.20
2022-07-25T03:28:24.909Z,10.43
2022-07-25T03:30:52.555Z,10.43
2022-07-25T03:33:19.586Z,9.77
2022-07-25T03:35:46.617Z,10.87
2022-07-25T03:38:13.575Z,10.93
2022-07-25T03:40:40.617Z,10.40
2022-07-25T03:43:07.432Z,10.67
2022-07-25T03:45:34.516Z,10.53
2022-07-25T03:48:02.047Z,10.23
2022-07-25T03:50:29.017Z,10.27
2022-07-25T03:52:55.939Z,10.70
2022-07-25T03:55:22.926Z,10.47
2022-07-25T03:57:49.757Z,10.13
2022-07-25T04:00:17.636Z,10.50
2022-07-25T04:02:44.794Z,10.50
2022-07-25T04:05:11.724Z,10.83
2022-07-25T04:07:38.822Z,10.40
2022-07-25T04:10:07.169Z,10.03
2022-07-25T04:12:34.550Z,10.03
2022-07-25T04:15:01.590Z,10.23
2022-07-25T04:17:28.438Z,10.30
2022-07-25T04:19:55.884Z,10.40
2022-07-25T04:22:23.545Z,9.83
2022-07-25T04:24:50.330Z,9.73
2022-07-25T04:27:17.155Z,10.50
2022-07-25T04:29:44.109Z,10.57
2022-07-25T04:32:11.052Z,9.80
2022-07-25T04:34:37.992Z,10.63
2022-07-25T04:37:04.988Z,10.07
2022-07-25T04:39:31.859Z,10.57
2022-07-25T04:41:58.717Z,9.43
2022-07-25T04:44:25.506Z,10.73
2022-07-25T04:46:52.302Z,10.07
2022-07-25T04:49:19.175Z,10.30
2022-07-25T04:51:46.033Z,9.80
2022-07-25T04:54:12.863Z,10.13
2022-07-25T04:56:39.761Z,9.30
2022-07-25T04:59:07.228Z,10.13
2022-07-25T05:01:35.478Z,9.80
2022-07-25T05:04:02.527Z,8.97
2022-07-25T05:06:29.614Z,10.40
2022-07-25T05:08:56.610Z,10.27
2022-07-25T05:11:23.416Z,10.27
2022-07-25T05:13:50.265Z,9.50
2022-07-25T05:16:17.209Z,10.07
2022-07-25T05:18:44.146Z,10.23
2022-07-25T05:21:12.530Z,10.03
2022-07-25T05:23:39.939Z,10.17
2022-07-25T05:26:06.844Z,10.27
2022-07-25T05:28:34.053Z,10.07
2022-07-25T05:31:01.202Z,10.50
2022-07-25T05:33:28.273Z,10.30
2022-07-25T05:35:55.258Z,10.40
2022-07-25T05:38:22.328Z,9.83
2022-07-25T05:40:52.122Z,10.23
2022-07-25T05:43:19.348Z,10.07
2022-07-25T05:45:47.508Z,10.10
2022-07-25T05:48:17.609Z,10.77
2022-07-25T05:50:46.120Z,10.43
2022-07-25T05:53:13.063Z,10.27
2022-07-25T05:55:40.233Z,10.40
2022-07-25T05:58:09.393Z,10.43
2022-07-25T06:00:36.525Z,10.03
2022-07-25T06:03:03.631Z,10.77
2022-07-25T06:05:30.647Z,9.90
2022-07-25T06:07:57.635Z,10.33
2022-07-25T06:10:24.745Z,10.50
2022-07-25T06:12:51.635Z,10.77
2022-07-25T06:15:22.303Z,10.52
2022-07-25T06:17:54.698Z,10.80
2022-07-25T06:20:22.083Z,10.65
2022-07-25T06:22:49.252Z,10.77
2022-07-25T06:25:16.406Z,10.75
2022-07-25T06:27:43.349Z,11.15
2022-07-25T06:30:19.612Z,10.90
2022-07-25T06:32:48.416Z,10.38
2022-07-25T06:35:16.476Z,11.43
2022-07-25T06:37:43.634Z,11.00
2022-07-25T06:40:11.004Z,11.40
2022-07-25T06:42:41.312Z,12.18
2022-07-25T06:45:09.769Z,11.77
2022-07-25T06:47:37.730Z,12.10
2022-07-25T06:50:07.414Z,11.98
2022-07-25T06:52:34.626Z,11.38
2022-07-25T06:55:02.339Z,11.82
2022-07-25T06:57:29.235Z,12.25
2022-07-25T06:59:56.198Z,11.25
2022-07-25T07:02:23.232Z,11.90
2022-07-25T07:04:50.169Z,11.05
2022-07-25T07:07:17.323Z,11.93
2022-07-25T07:09:44.630Z,10.55
2022-07-25T07:12:11.502Z,11.52
2022-07-25T07:14:38.407Z,11.27
2022-07-25T07:17:05.752Z,11.07
2022-07-25T07:19:32.711Z,11.10
2022-07-25T07:21:59.842Z,11.05
2022-07-25T07:24:26.862Z,11.52
2022-07-25T07:26:54.956Z,11.35
2022-07-25T07:29:21.939Z,11.70
2022-07-25T07:31:49.088Z,10.77
2022-07-25T07:34:16.403Z,11.02
2022-07-25T07:36:43.943Z,11.18
2022-07-25T07:39:10.914Z,11.65
2022-07-25T07:41:38.012Z,11.02
2022-07-25T07:44:05.936Z,11.32
2022-07-25T07:46:32.924Z,11.50
2022-07-25T07:48:59.929Z,11.02
2022-07-25T07:51:26.836Z,11.50
2022-07-25T07:54:12.209Z,11.32
2022-07-25T07:56:39.488Z,11.07
2022-07-25T07:59:06.607Z,11.15
2022-07-25T08:01:34.547Z,10.65
2022-07-25T08:04:01.490Z,10.52
2022-07-25T08:06:29.055Z,10.90
2022-07-25T08:08:55.924Z,11.18
2022-07-25T08:11:22.908Z,11.38
2022-07-25T08:13:49.751Z,10.48
2022-07-25T08:16:16.685Z,11.75
2022-07-25T08:18:43.733Z,10.90
2022-07-25T08:21:14.497Z,11.38
2022-07-25T08:23:41.470Z,11.35
2022-07-25T08:26:08.389Z,10.73
2022-07-25T08:28:35.357Z,11.10
2022-07-25T08:31:02.358Z,10.80
2022-07-25T08:33:29.446Z,11.13
2022-07-25T08:35:58.608Z,11.65
2022-07-25T08:38:27.113Z,11.43
2022-07-25T08:40:55.694Z,11.75
2022-07-25T08:43:23.087Z,11.18
2022-07-25T08:45:54.482Z,10.65
2022-07-25T08:48:23.709Z,10.90
2022-07-25T08:50:51.229Z,10.73
2022-07-25T08:53:36.084Z,11.15
2022-07-25T08:56:13.406Z,10.27
2022-07-25T08:58:44.068Z,10.18
2022-07-25T09:01:11.648Z,10.32
2022-07-25T09:03:38.938Z,10.25
2022-07-25T09:06:35.292Z,10.60
2022-07-25T09:09:05.403Z,10.52
2022-07-25T09:11:35.102Z,10.27
2022-07-25T09:14:06.911Z,11.18
2022-07-25T09:16:46.067Z,10.35
2022-07-25T09:19:21.686Z,10.98
2022-07-25T09:22:01.976Z,10.25
2022-07-25T09:24:30.078Z,10.57
2022-07-25T09:27:00.185Z,9.95
2022-07-25T09:29:32.417Z,10.77
2022-07-25T09:32:01.217Z,10.63
2022-07-25T09:34:42.339Z,10.85
2022-07-25T09:37:12.416Z,10.70
2022-07-25T09:39:49.339Z,10.52
2022-07-25T09:42:25.594Z,10.85
2022-07-25T09:45:11.350Z,10.77
2022-07-25T09:47:52.125Z,10.88
2022-07-25T09:50:20.034Z,10.85
2022-07-25T09:52:47.550Z,10.93
2022-07-25T09:55:15.748Z,10.77
2022-07-25T09:57:45.146Z,10.38
2022-07-25T10:00:19.043Z,9.63
2022-07-25T10:02:50.940Z,9.25
2022-07-25T10:05:23.849Z,9.88
2022-07-25T10:07:54.169Z,8.95
2022-07-25T10:10:32.044Z,9.60
2022-07-25T10:13:00.217Z,9.18
2022-07-25T10:15:28.234Z,8.98
2022-07-25T10:18:06.834Z,9.45
2022-07-25T10:20:34.174Z,9.20
2022-07-25T10:23:01.116Z,9.10
2022-07-25T10:25:28.108Z,8.95
2022-07-25T10:28:06.506Z,8.07
2022-07-25T10:30:38.765Z,8.00
2022-07-25T10:33:17.739Z,7.97
2022-07-25T10:35:45.584Z,7.55
2022-07-25T10:38:12.862Z,7.50
2022-07-25T10:40:44.653Z,6.90
2022-07-25T10:43:22.437Z,7.32
2022-07-25T10:45:58.091Z,8.35
2022-07-25T10:48:27.357Z,7.93
2022-07-25T10:50:59.238Z,7.75
2022-07-25T10:53:48.370Z,7.88
2022-07-25T10:56:20.056Z,7.10
2022-07-25T10:58:54.145Z,7.75
2022-07-25T11:01:27.855Z,7.22
2022-07-25T11:04:05.992Z,6.72
2022-07-25T11:06:40.783Z,7.13
2022-07-25T11:09:26.551Z,7.03
2022-07-25T11:11:57.270Z,7.13
2022-07-25T11:14:25.482Z,6.28
2022-07-25T11:16:54.075Z,6.70
2022-07-25T11:19:23.667Z,6.55
2022-07-25T11:21:58.898Z,6.97
2022-07-25T11:24:45.714Z,6.85
2022-07-25T11:27:24.935Z,7.00
2022-07-25T11:29:52.117Z,7.13
2022-07-25T11:32:19.743Z,6.68
2022-07-25T11:34:52.297Z,7.03
2022-07-25T11:37:20.836Z,7.38
2022-07-25T11:39:48.740Z,7.38
2022-07-25T11:42:18.243Z,7.78
2022-07-25T11:44:50.377Z,7.80
2022-07-25T11:47:31.053Z,7.47
2022-07-25T11:50:01.505Z,7.15
2022-07-25T11:52:37.172Z,7.63
2022-07-25T11:55:09.750Z,7.20
2022-07-25T11:57:40.012Z,7.30
2022-07-25T12:00:17.713Z,6.80
2022-07-25T12:02:45.638Z,6.93
2022-07-25T12:05:15.210Z,6.60
2022-07-25T12:07:46.351Z,6.97
2022-07-25T12:10:17.235Z,7.18
2022-07-25T12:12:49.318Z,7.55
2022-07-25T12:15:23.671Z,7.40
2022-07-25T12:17:56.008Z,7.45
2022-07-25T12:20:28.342Z,7.05
2022-07-25T12:22:57.490Z,6.95
2022-07-25T12:25:36.994Z,7.53
2022-07-25T12:28:04.321Z,7.82
2022-07-25T12:30:31.750Z,7.70
2022-07-25T12:33:00.012Z,7.97
2022-07-25T12:35:27.468Z,8.05
2022-07-25T12:37:54.640Z,7.65
2022-07-25T12:40:22.331Z,7.80
2022-07-25T12:42:49.694Z,7.85
2022-07-25T12:45:17.919Z,8.00
2022-07-25T12:47:46.378Z,8.25
2022-07-25T12:50:14.146Z,8.48
2022-07-25T12:52:42.236Z,8.45
2022-07-25T12:55:12.025Z,8.60
2022-07-25T12:57:39.189Z,8.13
2022-07-25T13:00:08.986Z,8.18
2022-07-25T13:02:35.911Z,8.43
2022-07-25T13:05:03.423Z,8.48
2022-07-25T13:07:30.295Z,8.05
2022-07-25T13:09:57.083Z,8.60
2022-07-25T13:12:24.288Z,8.43
2022-07-25T13:14:52.025Z,8.10
2022-07-25T13:17:22.460Z,8.20
2022-07-25T13:19:53.686Z,8.20
2022-07-25T13:22:20.551Z,8.32
2022-07-25T13:24:47.431Z,8.90
2022-07-25T13:27:14.426Z,7.80
2022-07-25T13:29:41.275Z,8.45
2022-07-25T13:32:10.534Z,8.07
2022-07-25T13:34:37.405Z,8.32
2022-07-25T13:37:04.577Z,8.70
2022-07-25T13:39:31.655Z,8.30
2022-07-25T13:41:58.441Z,7.60
2022-07-25T13:44:25.272Z,7.53
2022-07-25T13:46:52.153Z,7.38
2022-07-25T13:49:19.104Z,7.78
2022-07-25T13:51:45.997Z,7.97
2022-07-25T13:54:13.170Z,8.02
2022-07-25T13:56:41.488Z,7.80
2022-07-25T13:59:08.900Z,7.82
2022-07-25T14:01:36.132Z,7.53
2022-07-25T14:04:03.152Z,8.45
2022-07-25T14:06:30.050Z,7.65
2022-07-25T14:08:56.954Z,8.30
2022-07-25T14:11:27.347Z,8.10
2022-07-25T14:13:57.756Z,7.78
2022-07-25T14:16:24.871Z,8.27
2022-07-25T14:18:51.842Z,7.80
2022-07-25T14:21:18.692Z,7.47
2022-07-25T14:23:45.538Z,7.72
2022-07-25T14:26:13.196Z,8.00
2022-07-25T14:28:40.092Z,7.95
2022-07-25T14:31:07.064Z,8.05
2022-07-25T14:33:37.931Z,8.27
2022-07-25T14:36:05.010Z,8.38
2022-07-25T14:38:32.063Z,8.45
2022-07-25T14:40:59.148Z,8.18
2022-07-25T14:43:26.101Z,8.65
2022-07-25T14:45:52.990Z,8.60
2022-07-25T14:48:19.962Z,8.63
2022-07-25T14:50:46.776Z,8.23
2022-07-25T14:53:13.647Z,8.60
2022-07-25T14:55:40.676Z,8.82
2022-07-25T14:58:07.583Z,9.05
2022-07-25T15:00:34.564Z,8.68
2022-07-25T15:03:01.705Z,8.93
2022-07-25T15:05:28.616Z,9.10
2022-07-25T15:07:55.435Z,8.15
2022-07-25T15:10:22.312Z,8.57
2022-07-25T15:12:54.277Z,7.88
2022-07-25T15:15:29.090Z,8.65
2022-07-25T15:17:56.008Z,8.23
2022-07-25T15:20:22.912Z,7.90
2022-07-25T15:22:49.795Z,8.02
2022-07-25T15:25:57.965Z,7.80
2022-07-25T15:28:03.591Z,8.10
2022-07-25T15:30:30.886Z,7.78
2022-07-25T15:32:57.789Z,7.50
2022-07-25T15:35:24.704Z,7.25
2022-07-25T15:37:52.183Z,5.82
2022-07-25T15:40:19.098Z,6.20
2022-07-25T15:42:45.938Z,5.50
2022-07-25T15:45:32.565Z,5.13
2022-07-25T15:48:00.484Z,5.43
2022-07-25T15:50:27.313Z,5.45
2022-07-25T15:52:54.129Z,5.65
2022-07-25T15:55:21.097Z,5.25
2022-07-25T15:57:47.915Z,5.45
2022-07-25T16:00:14.903Z,5.53
2022-07-25T16:02:41.754Z,5.93
2022-07-25T16:05:08.865Z,6.03
2022-07-25T16:07:35.713Z,6.38
2022-07-25T16:10:02.569Z,6.40
2022-07-25T16:12:29.432Z,5.78
2022-07-25T16:14:56.340Z,6.18
2022-07-25T16:17:23.745Z,5.82
2022-07-25T16:19:50.573Z,6.20
2022-07-25T16:22:17.380Z,6.10
2022-07-25T16:24:44.433Z,6.28
2022-07-25T16:27:11.535Z,6.63
2022-07-25T16:29:39.951Z,6.72
2022-07-25T16:32:08.007Z,6.10
2022-07-25T16:34:35.574Z,6.70
2022-07-25T16:37:03.551Z,6.40
2022-07-25T16:39:30.637Z,6.28
2022-07-25T16:41:57.458Z,7.35
2022-07-25T16:44:24.275Z,6.80
2022-07-25T16:46:51.297Z,6.90
2022-07-25T16:49:18.515Z,6.70
2022-07-25T16:51:46.149Z,6.53
2022-07-25T16:54:12.963Z,6.95
2022-07-25T16:56:40.624Z,6.70
2022-07-25T16:59:08.595Z,7.00
2022-07-25T17:01:35.896Z,6.47
2022-07-25T17:04:02.960Z,6.93
2022-07-25T17:06:29.862Z,7.05
2022-07-25T17:08:56.946Z,6.68
2022-07-25T17:11:23.797Z,6.93
2022-07-25T17:13:50.642Z,7.20
2022-07-25T17:16:17.545Z,7.25
2022-07-25T17:18:45.147Z,6.80
2022-07-25T17:21:15.177Z,7.22
2022-07-25T17:23:42.362Z,7.38
2022-07-25T17:26:09.262Z,7.57
2022-07-25T17:28:36.530Z,6.93
2022-07-25T17:31:03.488Z,6.90
2022-07-25T17:33:30.487Z,6.78
2022-07-25T17:35:59.071Z,6.72
2022-07-25T17:38:28.436Z,6.53
2022-07-25T17:40:57.288Z,6.70
2022-07-25T17:43:24.200Z,7.45
2022-07-25T17:45:51.260Z,7.50
2022-07-25T17:48:18.099Z,7.00
2022-07-25T17:50:45.371Z,7.57
2022-07-25T17:53:13.625Z,6.97
2022-07-25T17:55:44.159Z,7.45
2022-07-25T17:58:11.851Z,7.20
2022-07-25T18:00:39.212Z,7.28
2022-07-25T18:03:06.581Z,7.70
2022-07-25T18:05:33.662Z,8.13
2022-07-25T18:08:02.761Z,8.20
2022-07-25T18:10:30.342Z,8.40
2022-07-25T18:13:00.227Z,8.27
2022-07-25T18:15:27.554Z,7.80
2022-07-25T18:17:54.556Z,7.70
2022-07-25T18:20:21.470Z,12.13
2022-07-25T18:22:48.474Z,10.85
2022-07-25T18:25:15.901Z,9.00
2022-07-25T18:27:46.936Z,11.70
2022-07-25T18:30:15.974Z,10.00
2022-07-25T18:32:43.008Z,10.35
2022-07-25T18:35:11.107Z,9.88
2022-07-25T18:37:38.516Z,8.68
2022-07-25T18:40:07.243Z,8.85
2022-07-25T18:42:35.313Z,9.00
2022-07-25T18:45:03.421Z,8.93
2022-07-25T18:47:31.084Z,9.90
2022-07-25T18:49:59.483Z,8.98
2022-07-25T18:52:26.731Z,8.70
2022-07-25T18:54:53.534Z,8.57
2022-07-25T18:57:20.400Z,8.98
2022-07-25T18:59:47.523Z,8.48
2022-07-25T19:02:14.416Z,8.52
2022-07-25T19:04:41.400Z,8.73
2022-07-25T19:07:09.179Z,9.57
2022-07-25T19:09:36.065Z,8.90
2022-07-25T19:12:02.948Z,8.38
2022-07-25T19:14:30.706Z,8.10
2022-07-25T19:16:58.827Z,8.43
2022-07-25T19:19:26.889Z,8.50
2022-07-25T19:21:53.858Z,8.43
2022-07-25T19:24:21.156Z,8.55
2022-07-25T19:26:48.757Z,7.97
2022-07-25T19:29:16.906Z,8.05
2022-07-25T19:31:44.607Z,7.18
2022-07-25T19:34:12.132Z,7.65
2022-07-25T19:36:39.372Z,7.40
2022-07-25T19:39:06.843Z,7.10
2022-07-25T19:41:33.768Z,7.22
2022-07-25T19:44:00.741Z,7.40
2022-07-25T19:46:31.332Z,6.90
2022-07-25T19:48:58.380Z,6.80
2022-07-25T19:51:25.544Z,7.35
2022-07-25T19:53:52.613Z,7.18
2022-07-25T19:56:20.335Z,7.18
2022-07-25T19:58:47.182Z,6.70
2022-07-25T20:01:14.077Z,6.40
2022-07-25T20:03:41.664Z,6.30
2022-07-25T20:06:09.419Z,5.97
2022-07-25T20:08:39.423Z,5.97
2022-07-25T20:11:07.695Z,6.15
2022-07-25T20:13:35.670Z,5.53
2022-07-25T20:16:03.938Z,5.50
2022-07-25T20:18:31.135Z,5.45
2022-07-25T20:20:58.239Z,5.47
2022-07-25T20:23:25.223Z,5.57
2022-07-25T20:25:52.267Z,5.53
2022-07-25T20:28:19.183Z,5.10
2022-07-25T20:30:46.136Z,5.35
2022-07-25T20:33:13.126Z,4.70
2022-07-25T20:35:40.031Z,5.40
2022-07-25T20:38:08.986Z,5.28
2022-07-25T20:40:36.729Z,5.50
2022-07-25T20:43:07.567Z,5.10
2022-07-25T20:45:34.503Z,4.53
2022-07-25T20:48:01.420Z,4.78
2022-07-25T20:50:28.378Z,4.57
2022-07-25T20:52:55.237Z,4.88
2022-07-25T20:55:22.377Z,4.28
2022-07-25T20:57:50.845Z,4.40
2022-07-25T21:00:18.205Z,4.45
2022-07-25T21:02:45.128Z,4.22
2022-07-25T21:05:12.004Z,4.07
2022-07-25T21:07:38.916Z,3.67
2022-07-25T21:10:06.222Z,3.92
2022-07-25T21:12:33.372Z,3.63
2022-07-25T21:15:01.336Z,3.50
2022-07-25T21:17:28.360Z,3.30
2022-07-25T21:19:55.386Z,3.75
2022-07-25T21:22:22.279Z,3.05
2022-07-25T21:24:52.333Z,3.30
2022-07-25T21:27:19.657Z,3.42
2022-07-25T21:29:46.594Z,3.70
2022-07-25T21:32:13.880Z,3.10
2022-07-25T21:34:41.770Z,3.45
2022-07-25T21:37:08.842Z,3.60
2022-07-25T21:39:35.854Z,3.10
2022-07-25T21:42:02.713Z,3.35
2022-07-25T21:44:31.815Z,2.90
2022-07-25T21:46:58.630Z,3.25
2022-07-25T21:49:44.030Z,3.15
2022-07-25T21:52:13.884Z,3.20
2022-07-25T21:54:44.677Z,3.17
2022-07-25T21:57:13.402Z,3.13
2022-07-25T21:59:44.969Z,2.90
2022-07-25T22:02:12.847Z,3.00
2022-07-25T22:04:39.936Z,2.88
2022-07-25T22:07:07.814Z,3.30
2022-07-25T22:09:34.844Z,2.75
2022-07-25T22:12:01.939Z,3.03
2022-07-25T22:14:28.792Z,2.70
2022-07-25T22:16:55.786Z,2.78
2022-07-25T22:19:22.872Z,2.90
2022-07-25T22:21:50.379Z,2.80
2022-07-25T22:24:17.453Z,2.85
2022-07-25T22:26:44.351Z,2.78
2022-07-25T22:29:12.034Z,2.65
2022-07-25T22:31:39.434Z,2.78
2022-07-25T22:34:06.596Z,2.92
2022-07-25T22:36:33.463Z,2.90
2022-07-25T22:39:00.290Z,2.80
2022-07-25T22:41:27.763Z,2.50
2022-07-25T22:43:57.657Z,2.55
2022-07-25T22:46:28.374Z,2.70
2022-07-25T22:48:55.577Z,2.30
2022-07-25T22:51:22.617Z,2.30
2022-07-25T22:53:49.580Z,2.70
2022-07-25T22:56:17.017Z,2.40
2022-07-25T22:58:44.186Z,2.47
2022-07-25T23:01:13.790Z,2.60
2022-07-25T23:03:40.682Z,2.50
2022-07-25T23:06:07.716Z,2.70
2022-07-25T23:08:34.655Z,2.40
2022-07-25T23:11:03.422Z,2.63
2022-07-25T23:13:30.389Z,2.50
2022-07-25T23:15:57.314Z,2.30
2022-07-25T23:18:24.218Z,2.40
2022-07-25T23:20:51.065Z,2.55
2022-07-25T23:23:18.026Z,2.30
2022-07-25T23:25:44.868Z,2.15
2022-07-25T23:28:11.759Z,2.00
2022-07-25T23:30:40.648Z,1.98
2022-07-25T23:33:08.425Z,2.00
2022-07-25T23:35:35.468Z,1.95
2022-07-25T23:38:02.852Z,1.90
2022-07-25T23:40:30.410Z,1.83
2022-07-25T23:42:57.251Z,1.80
2022-07-25T23:45:25.441Z,1.70
2022-07-25T23:47:55.876Z,1.80
2022-07-25T23:50:23.843Z,1.80
2022-07-25T23:52:51.333Z,1.92
2022-07-25T23:55:18.221Z,1.95
2022-07-25T23:57:45.088Z,1.60
